createdAt,value
2023-05-05T00:00:04.538Z,101754.91
2023-05-05T00:02:32.476Z,101748.38
2023-05-05T00:04:59.531Z,101765.88
2023-05-05T00:07:26.700Z,101750.19
2023-05-05T00:09:54.274Z,101743.34
2023-05-05T00:12:21.368Z,101749.75
2023-05-05T00:14:48.545Z,101742.19
2023-05-05T00:17:15.757Z,101723.41
2023-05-05T00:19:43.000Z,101737.47
2023-05-05T00:22:10.142Z,101742.25
2023-05-05T00:24:37.158Z,101744.66
2023-05-05T00:27:04.280Z,101739.34
2023-05-05T00:29:32.286Z,101700.81
2023-05-05T00:31:59.530Z,101713.34
2023-05-05T00:34:26.625Z,101746.56
2023-05-05T00:36:54.128Z,101735.38
2023-05-05T00:39:21.405Z,101740.63
2023-05-05T00:41:48.488Z,101708.78
2023-05-05T00:44:15.793Z,101697.63
2023-05-05T00:46:43.573Z,101740.41
2023-05-05T00:49:12.374Z,101684.16
2023-05-05T00:51:39.868Z,101743.34
2023-05-05T00:54:07.512Z,101733.13
2023-05-05T00:56:34.659Z,101734.34
2023-05-05T00:59:02.767Z,101736.66
2023-05-05T01:01:29.840Z,101703.19
2023-05-05T01:03:57.226Z,101734.84
2023-05-05T01:07:09.196Z,101738.69
2023-05-05T01:09:44.594Z,101736.34
2023-05-05T01:12:30.333Z,101742.13
2023-05-05T01:15:09.398Z,101736.44
2023-05-05T01:18:15.430Z,101736.38
2023-05-05T01:20:53.516Z,101730.19
2023-05-05T01:23:33.352Z,101727.81
2023-05-05T01:26:29.879Z,101726.69
2023-05-05T01:29:15.041Z,101723.91
2023-05-05T01:31:57.668Z,101731.94
2023-05-05T01:34:28.005Z,101723.03
2023-05-05T01:37:04.771Z,101732.84
2023-05-05T01:39:35.070Z,101726.69
2023-05-05T01:42:08.303Z,101735.59
2023-05-05T01:44:37.115Z,101728.06
2023-05-05T01:47:06.442Z,101713.81
2023-05-05T01:49:34.666Z,101715.81
2023-05-05T01:52:03.794Z,101711.69
2023-05-05T01:54:33.697Z,101695.97
2023-05-05T01:57:05.100Z,101684.69
2023-05-05T01:59:34.148Z,101714.00
2023-05-05T02:02:02.899Z,101706.06
2023-05-05T02:04:33.269Z,101716.84
2023-05-05T02:07:03.513Z,101701.88
2023-05-05T02:09:32.619Z,101690.13
2023-05-05T02:12:00.876Z,101680.19
2023-05-05T02:14:29.980Z,101701.00
2023-05-05T02:16:59.205Z,101709.88
2023-05-05T02:19:34.630Z,101691.31
2023-05-05T02:22:01.703Z,101708.16
2023-05-05T02:24:29.497Z,101698.47
2023-05-05T02:26:58.638Z,101690.25
2023-05-05T02:29:31.736Z,101688.75
2023-05-05T02:32:05.122Z,101671.03
2023-05-05T02:34:36.950Z,101690.72
2023-05-05T02:37:11.220Z,101696.91
2023-05-05T02:39:58.532Z,101677.56
2023-05-05T02:42:36.930Z,101667.88
2023-05-05T02:45:15.512Z,101602.88
2023-05-05T02:47:46.017Z,101656.06
2023-05-05T02:50:13.481Z,101669.66
2023-05-05T02:52:47.213Z,101653.09
2023-05-05T02:55:15.751Z,101663.03
2023-05-05T02:58:06.764Z,101666.22
2023-05-05T03:00:50.676Z,101670.31
2023-05-05T03:03:44.862Z,101671.59
2023-05-05T03:06:21.186Z,101667.41
2023-05-05T03:08:59.077Z,101664.88
2023-05-05T03:11:44.084Z,101674.88
2023-05-05T03:14:12.381Z,101682.19
2023-05-05T03:16:43.657Z,101682.09
2023-05-05T03:19:13.641Z,101685.75
2023-05-05T03:21:42.458Z,101700.66
2023-05-05T03:24:18.380Z,101693.47
2023-05-05T03:26:53.480Z,101694.50
2023-05-05T03:29:23.283Z,101691.88
2023-05-05T03:31:50.544Z,101690.59
2023-05-05T03:34:18.333Z,101674.53
2023-05-05T03:36:47.860Z,101660.09
2023-05-05T03:39:16.599Z,101682.84
2023-05-05T03:41:43.693Z,101668.75
2023-05-05T03:44:12.229Z,101694.31
2023-05-05T03:46:39.348Z,101701.88
2023-05-05T03:49:09.956Z,101667.09
2023-05-05T03:51:38.957Z,101706.63
2023-05-05T03:54:06.360Z,101702.50
2023-05-05T03:56:33.495Z,101692.94
2023-05-05T03:59:00.586Z,101716.41
2023-05-05T04:01:30.054Z,101699.78
2023-05-05T04:03:57.776Z,101701.81
2023-05-05T04:06:25.798Z,101683.19
2023-05-05T04:08:52.897Z,101705.50
2023-05-05T04:11:21.403Z,101695.19
2023-05-05T04:13:50.103Z,101723.88
2023-05-05T04:16:18.767Z,101709.41
2023-05-05T04:18:46.380Z,101734.47
2023-05-05T04:21:13.532Z,101664.00
2023-05-05T04:23:41.078Z,101723.88
2023-05-05T04:26:08.231Z,101729.91
2023-05-05T04:28:35.986Z,101724.81
2023-05-05T04:31:05.280Z,101722.25
2023-05-05T04:33:35.991Z,101728.53
2023-05-05T04:36:03.581Z,101724.09
2023-05-05T04:38:31.057Z,101721.91
2023-05-05T04:41:00.054Z,101727.19
2023-05-05T04:43:27.986Z,101727.28
2023-05-05T04:45:55.877Z,101724.75
2023-05-05T04:48:26.903Z,101726.56
2023-05-05T04:50:54.061Z,101724.19
2023-05-05T04:53:21.235Z,101674.56
2023-05-05T04:55:48.461Z,101732.25
2023-05-05T04:58:15.885Z,101733.13
2023-05-05T05:00:44.064Z,101736.19
2023-05-05T05:03:11.684Z,101725.72
2023-05-05T05:05:38.760Z,101716.72
2023-05-05T05:08:06.348Z,101743.00
2023-05-05T05:10:33.407Z,101739.69
2023-05-05T05:13:00.488Z,101746.03
2023-05-05T05:15:27.650Z,101749.56
2023-05-05T05:17:54.961Z,101749.66
2023-05-05T05:20:22.239Z,101729.75
2023-05-05T05:22:50.052Z,101694.59
2023-05-05T05:25:19.546Z,101751.69
2023-05-05T05:27:55.300Z,101742.91
2023-05-05T05:30:34.035Z,101733.13
2023-05-05T05:33:03.503Z,101730.41
2023-05-05T05:35:31.567Z,101744.91
2023-05-05T05:38:01.607Z,101713.69
2023-05-05T05:40:28.766Z,101749.16
2023-05-05T05:42:56.305Z,101754.41
2023-05-05T05:45:25.076Z,101733.28
2023-05-05T05:47:52.792Z,101748.63
2023-05-05T05:50:20.935Z,101708.91
2023-05-05T05:52:47.983Z,101734.53
2023-05-05T05:55:15.706Z,101737.81
2023-05-05T05:57:43.281Z,101668.16
2023-05-05T06:00:11.975Z,101715.28
2023-05-05T06:02:39.542Z,101738.34
2023-05-05T06:05:11.118Z,101742.81
2023-05-05T06:07:38.588Z,101672.25
2023-05-05T06:10:22.724Z,101700.81
2023-05-05T06:12:55.818Z,101720.06
2023-05-05T06:15:22.926Z,101721.78
2023-05-05T06:17:50.515Z,101713.22
2023-05-05T06:20:17.897Z,101682.78
2023-05-05T06:22:44.984Z,101714.00
2023-05-05T06:25:12.334Z,101739.16
2023-05-05T06:27:39.393Z,101699.09
2023-05-05T06:30:07.920Z,101735.28
2023-05-05T06:32:35.169Z,101744.81
2023-05-05T06:35:02.463Z,101736.25
2023-05-05T06:37:29.903Z,101739.59
2023-05-05T06:39:57.074Z,101730.41
2023-05-05T06:42:24.188Z,101704.84
2023-05-05T06:44:53.108Z,101714.69
2023-05-05T06:47:20.389Z,101735.50
2023-05-05T06:49:47.461Z,101731.38
2023-05-05T06:52:14.509Z,101721.38
2023-05-05T06:54:41.606Z,101730.75
2023-05-05T06:57:08.658Z,101705.63
2023-05-05T06:59:36.581Z,101728.19
2023-05-05T07:02:03.615Z,101737.88
2023-05-05T07:04:30.641Z,101728.16
2023-05-05T07:06:58.502Z,101722.84
2023-05-05T07:09:25.746Z,101728.06
2023-05-05T07:11:52.784Z,101747.06
2023-05-05T07:14:20.986Z,101728.56
2023-05-05T07:16:49.863Z,101746.34
2023-05-05T07:19:17.688Z,101732.63
2023-05-05T07:24:30.627Z,101726.00
2023-05-05T07:26:57.911Z,101729.75
2023-05-05T07:29:24.968Z,101739.38
2023-05-05T07:31:52.039Z,101735.47
2023-05-05T07:34:19.207Z,101719.25
2023-05-05T07:36:46.318Z,101717.03
2023-05-05T07:39:27.153Z,101748.25
2023-05-05T07:41:54.277Z,101710.66
2023-05-05T07:44:21.466Z,101738.72
2023-05-05T07:46:48.530Z,101714.53
2023-05-05T07:49:15.778Z,101701.59
2023-05-05T07:51:42.926Z,101715.41
2023-05-05T07:54:09.875Z,101715.19
2023-05-05T07:56:36.958Z,101724.78
2023-05-05T07:59:04.086Z,101676.47
2023-05-05T08:01:31.312Z,101719.72
2023-05-05T08:03:58.932Z,101723.06
2023-05-05T08:06:27.882Z,101698.09
2023-05-05T08:08:55.925Z,101723.59
2023-05-05T08:11:23.061Z,101689.78
2023-05-05T08:13:50.089Z,101694.13
2023-05-05T08:16:17.226Z,101722.28
2023-05-05T08:18:44.519Z,101716.94
2023-05-05T08:21:12.237Z,101715.19
2023-05-05T08:23:39.983Z,101697.97
2023-05-05T08:26:07.597Z,101711.19
2023-05-05T08:28:36.578Z,101713.59
2023-05-05T08:31:07.148Z,101713.31
2023-05-05T08:33:34.381Z,101706.53
2023-05-05T08:36:01.555Z,101715.22
2023-05-05T08:38:28.625Z,101717.53
2023-05-05T08:40:56.176Z,101720.50
2023-05-05T08:43:24.080Z,101712.53
2023-05-05T08:45:51.894Z,101717.59
2023-05-05T08:48:22.836Z,101714.03
2023-05-05T08:50:59.974Z,101710.59
2023-05-05T08:53:55.978Z,101712.44
2023-05-05T08:56:27.453Z,101706.44
2023-05-05T08:58:56.550Z,101705.19
2023-05-05T09:01:24.011Z,101689.00
2023-05-05T09:03:52.699Z,101711.75
2023-05-05T09:06:24.257Z,101698.97
2023-05-05T09:08:51.559Z,101712.91
2023-05-05T09:11:18.664Z,101703.66
2023-05-05T09:13:47.650Z,101700.38
2023-05-05T09:16:14.800Z,101702.25
2023-05-05T09:18:42.890Z,101659.63
2023-05-05T09:21:24.771Z,101700.34
2023-05-05T09:24:09.081Z,101699.66
2023-05-05T09:26:39.193Z,101675.34
2023-05-05T09:29:06.849Z,101657.00
2023-05-05T09:31:35.511Z,101698.88
2023-05-05T09:34:14.889Z,101661.88
2023-05-05T09:36:49.034Z,101686.19
2023-05-05T09:39:20.436Z,101700.72
2023-05-05T09:41:47.560Z,101676.88
2023-05-05T09:44:17.781Z,101680.34
2023-05-05T09:46:51.597Z,101676.44
2023-05-05T09:49:23.181Z,101692.25
2023-05-05T09:51:50.322Z,101692.28
2023-05-05T09:54:28.587Z,101685.19
2023-05-05T09:56:57.068Z,101683.09
2023-05-05T09:59:24.830Z,101685.72
2023-05-05T10:01:52.414Z,101689.66
2023-05-05T10:04:30.673Z,101681.50
2023-05-05T10:06:59.101Z,101668.09
2023-05-05T10:09:27.261Z,101665.22
2023-05-05T10:11:57.412Z,101684.69
2023-05-05T10:14:25.292Z,101680.47
2023-05-05T10:16:55.015Z,101557.44
2023-05-05T10:19:24.286Z,101669.72
2023-05-05T10:21:53.238Z,101670.22
2023-05-05T10:24:38.745Z,101657.91
2023-05-05T10:27:15.824Z,101650.00
2023-05-05T10:30:03.138Z,101652.59
2023-05-05T10:33:03.376Z,101637.59
2023-05-05T10:35:40.959Z,101630.72
2023-05-05T10:38:13.336Z,101659.09
2023-05-05T10:40:45.652Z,101655.34
2023-05-05T10:43:15.961Z,101649.31
2023-05-05T10:45:44.185Z,101646.16
2023-05-05T10:48:22.989Z,101635.84
2023-05-05T10:50:56.970Z,101612.19
2023-05-05T10:53:28.764Z,101609.00
2023-05-05T10:56:26.806Z,101639.69
2023-05-05T10:59:00.045Z,101625.72
2023-05-05T11:01:36.321Z,101626.41
2023-05-05T11:04:23.525Z,101602.34
2023-05-05T11:07:12.453Z,101628.06
2023-05-05T11:10:21.215Z,101632.25
2023-05-05T11:12:54.370Z,101619.31
2023-05-05T11:15:24.225Z,101620.56
2023-05-05T11:17:51.426Z,101624.19
2023-05-05T11:20:43.457Z,101623.66
2023-05-05T11:23:10.500Z,101615.66
2023-05-05T11:25:39.217Z,101620.31
2023-05-05T11:28:16.945Z,101615.53
2023-05-05T11:30:59.711Z,101610.75
2023-05-05T11:33:36.168Z,101609.63
2023-05-05T11:36:11.727Z,101607.03
2023-05-05T11:38:56.788Z,101600.69
2023-05-05T11:41:33.668Z,101599.06
2023-05-05T11:44:13.821Z,101598.25
2023-05-05T11:47:01.769Z,101605.59
2023-05-05T11:49:33.530Z,101580.78
2023-05-05T11:52:14.729Z,101553.47
2023-05-05T11:54:50.550Z,101590.47
2023-05-05T11:57:23.462Z,101570.84
2023-05-05T11:59:55.100Z,101579.09
2023-05-05T12:02:23.375Z,101553.63
2023-05-05T12:04:51.542Z,101573.78
2023-05-05T12:07:24.914Z,101569.91
2023-05-05T12:09:52.855Z,101570.41
2023-05-05T12:12:20.539Z,101559.28
2023-05-05T12:14:52.864Z,101556.94
2023-05-05T12:17:21.137Z,101554.94
2023-05-05T12:19:55.826Z,101558.69
2023-05-05T12:22:27.016Z,101547.44
2023-05-05T12:24:59.058Z,101551.81
2023-05-05T12:27:28.154Z,101549.34
2023-05-05T12:29:57.663Z,101549.63
2023-05-05T12:32:28.357Z,101546.38
2023-05-05T12:34:57.640Z,101519.28
2023-05-05T12:37:27.216Z,101545.81
2023-05-05T12:39:55.189Z,101507.50
2023-05-05T12:42:22.793Z,101516.88
2023-05-05T12:44:50.069Z,101510.66
2023-05-05T12:47:33.061Z,101528.09
2023-05-05T12:50:03.026Z,101501.22
2023-05-05T12:52:44.383Z,101520.47
2023-05-05T12:55:11.876Z,101487.69
2023-05-05T12:57:39.750Z,101497.50
2023-05-05T13:00:15.077Z,101494.66
2023-05-05T13:02:42.339Z,101506.06
2023-05-05T13:05:10.230Z,101488.09
2023-05-05T13:07:50.880Z,101471.38
2023-05-05T13:10:18.811Z,101441.88
2023-05-05T13:12:46.067Z,101462.19
2023-05-05T13:15:13.394Z,101483.78
2023-05-05T13:17:40.504Z,101450.88
2023-05-05T13:20:09.798Z,101469.91
2023-05-05T13:22:37.146Z,101462.28
2023-05-05T13:25:04.531Z,101461.72
2023-05-05T13:27:31.656Z,101453.19
2023-05-05T13:29:58.668Z,101457.50
2023-05-05T13:32:25.867Z,101452.63
2023-05-05T13:34:53.115Z,101439.53
2023-05-05T13:37:20.277Z,101448.44
2023-05-05T13:39:47.345Z,101409.06
2023-05-05T13:42:14.400Z,101446.31
2023-05-05T13:44:41.489Z,101393.03
2023-05-05T13:47:08.874Z,101455.28
2023-05-05T13:49:36.102Z,101437.28
2023-05-05T13:52:03.272Z,101441.34
2023-05-05T13:54:30.295Z,101434.56
2023-05-05T13:56:58.102Z,101432.06
2023-05-05T13:59:25.961Z,101428.84
2023-05-05T14:01:53.218Z,101424.34
2023-05-05T14:04:20.384Z,101431.22
2023-05-05T14:06:47.625Z,101425.53
2023-05-05T14:09:14.767Z,101420.19
2023-05-05T14:11:41.965Z,101415.91
2023-05-05T14:14:09.071Z,101424.19
2023-05-05T14:16:36.246Z,101407.84
2023-05-05T14:19:03.504Z,101409.66
2023-05-05T14:21:32.655Z,101409.47
2023-05-05T14:23:59.973Z,101405.88
2023-05-05T14:26:27.364Z,101411.44
2023-05-05T14:28:54.607Z,101411.94
2023-05-05T14:31:21.716Z,101421.91
2023-05-05T14:33:49.007Z,101421.34
2023-05-05T14:36:16.122Z,101410.72
2023-05-05T14:38:43.417Z,101405.81
2023-05-05T14:41:10.624Z,101387.47
2023-05-05T14:43:37.733Z,101358.03
2023-05-05T14:46:07.162Z,101401.84
2023-05-05T14:48:34.749Z,101344.34
2023-05-05T14:51:02.248Z,101390.44
2023-05-05T14:53:29.340Z,101398.63
2023-05-05T14:55:56.430Z,101373.22
2023-05-05T14:58:24.764Z,101391.47
2023-05-05T15:00:52.987Z,101377.69
2023-05-05T15:03:20.599Z,101383.38
2023-05-05T15:05:47.778Z,101379.72
2023-05-05T15:08:14.846Z,101321.16
2023-05-05T15:10:41.989Z,101376.78
2023-05-05T15:13:09.300Z,101349.47
2023-05-05T15:15:36.597Z,101403.41
2023-05-05T15:18:03.830Z,101369.19
2023-05-05T15:20:31.332Z,101396.25
2023-05-05T15:22:58.404Z,101397.16
2023-05-05T15:25:25.479Z,101364.75
2023-05-05T15:27:52.683Z,101388.41
2023-05-05T15:30:19.745Z,101400.81
2023-05-05T15:32:46.894Z,101387.28
2023-05-05T15:35:13.988Z,101379.91
2023-05-05T15:37:42.692Z,101385.50
2023-05-05T15:40:10.217Z,101352.59
2023-05-05T15:42:37.743Z,101366.81
2023-05-05T15:45:05.798Z,101370.50
2023-05-05T15:47:32.918Z,101376.53
2023-05-05T15:49:59.936Z,101354.59
2023-05-05T15:52:26.959Z,101371.97
2023-05-05T15:54:53.958Z,101383.34
2023-05-05T15:57:21.549Z,101384.34
2023-05-05T15:59:54.711Z,101383.09
2023-05-05T16:02:22.257Z,101382.03
2023-05-05T16:04:49.266Z,101379.56
2023-05-05T16:07:17.185Z,101370.16
2023-05-05T16:09:44.598Z,101353.84
2023-05-05T16:12:11.547Z,101323.31
2023-05-05T16:14:38.673Z,101386.44
2023-05-05T16:17:05.872Z,101351.66
2023-05-05T16:19:33.038Z,101376.50
2023-05-05T16:22:00.128Z,101376.84
2023-05-05T16:24:27.227Z,101376.84
2023-05-05T16:26:54.314Z,101377.41
2023-05-05T16:29:21.427Z,101371.06
2023-05-05T16:31:48.644Z,101384.78
2023-05-05T16:34:16.572Z,101343.66
2023-05-05T16:36:44.385Z,101380.81
2023-05-05T16:39:12.000Z,101380.81
2023-05-05T16:41:39.470Z,101378.94
2023-05-05T16:44:07.108Z,101377.28
2023-05-05T16:46:37.596Z,101376.28
2023-05-05T16:49:04.856Z,101373.59
2023-05-05T16:51:31.935Z,101369.84
2023-05-05T16:53:59.018Z,101375.31
2023-05-05T16:56:26.312Z,101385.50
2023-05-05T16:58:53.583Z,101388.25
2023-05-05T17:01:20.824Z,101385.72
2023-05-05T17:03:48.051Z,101390.69
2023-05-05T17:06:15.153Z,101393.59
2023-05-05T17:08:42.341Z,101381.88
2023-05-05T17:11:11.696Z,101399.22
2023-05-05T17:13:39.012Z,101368.69
2023-05-05T17:16:06.549Z,101383.09
2023-05-05T17:18:33.701Z,101391.75
2023-05-05T17:21:00.802Z,101387.19
2023-05-05T17:23:27.821Z,101390.13
2023-05-05T17:25:54.912Z,101378.88
2023-05-05T17:28:22.556Z,101373.44
2023-05-05T17:30:49.648Z,101398.34
2023-05-05T17:33:21.579Z,101370.91
2023-05-05T17:35:48.811Z,101384.53
2023-05-05T17:38:16.033Z,101398.19
2023-05-05T17:40:43.176Z,101400.63
2023-05-05T17:43:10.306Z,101388.94
2023-05-05T17:45:37.434Z,101399.25
2023-05-05T17:48:05.119Z,101399.13
2023-05-05T17:50:32.418Z,101414.09
2023-05-05T17:52:59.541Z,101418.97
2023-05-05T17:55:26.570Z,101409.06
2023-05-05T17:57:55.919Z,101423.00
2023-05-05T18:00:23.332Z,101422.91
2023-05-05T18:02:50.532Z,101433.28
2023-05-05T18:05:18.201Z,101427.19
2023-05-05T18:07:45.653Z,101422.78
2023-05-05T18:10:12.980Z,101413.31
2023-05-05T18:12:39.988Z,101414.63
2023-05-05T18:15:07.814Z,101429.84
2023-05-05T18:17:35.106Z,101435.09
2023-05-05T18:20:02.619Z,101400.94
2023-05-05T18:22:29.703Z,101444.09
2023-05-05T18:24:59.164Z,101395.47
2023-05-05T18:27:27.532Z,101460.56
2023-05-05T18:29:54.957Z,101449.50
2023-05-05T18:32:22.118Z,101401.13
2023-05-05T18:34:49.430Z,101449.41
2023-05-05T18:37:16.505Z,101469.38
2023-05-05T18:39:44.224Z,101471.63
2023-05-05T18:42:13.064Z,101447.03
2023-05-05T18:44:40.135Z,101410.72
2023-05-05T18:47:07.963Z,101468.47
2023-05-05T18:49:35.317Z,101477.06
2023-05-05T18:52:02.442Z,101471.25
2023-05-05T18:54:29.726Z,101473.19
2023-05-05T18:56:56.884Z,101413.63
2023-05-05T18:59:24.265Z,101471.16
2023-05-05T19:01:51.421Z,101482.22
2023-05-05T19:04:30.220Z,101437.69
2023-05-05T19:06:58.570Z,101444.00
2023-05-05T19:09:25.746Z,101480.09
2023-05-05T19:11:52.830Z,101492.03
2023-05-05T19:14:19.883Z,101488.78
2023-05-05T19:16:47.224Z,101486.88
2023-05-05T19:19:14.676Z,101488.69
2023-05-05T19:21:41.911Z,101493.78
2023-05-05T19:24:09.810Z,101480.94
2023-05-05T19:26:37.167Z,101501.28
2023-05-05T19:29:04.332Z,101429.03
2023-05-05T19:31:31.862Z,101494.34
2023-05-05T19:34:01.354Z,101492.28
2023-05-05T19:36:29.049Z,101485.44
2023-05-05T19:38:56.156Z,101453.16
2023-05-05T19:41:23.384Z,101486.31
2023-05-05T19:43:50.388Z,101480.00
2023-05-05T19:46:19.598Z,101475.84
2023-05-05T19:48:46.704Z,101465.56
2023-05-05T19:51:13.797Z,101483.16
2023-05-05T19:53:42.875Z,101472.69
2023-05-05T19:56:10.412Z,101479.72
2023-05-05T19:59:00.719Z,101479.81
2023-05-05T20:01:29.266Z,101490.78
2023-05-05T20:03:57.127Z,101488.59
2023-05-05T20:06:24.615Z,101499.09
2023-05-05T20:08:52.471Z,101488.97
2023-05-05T20:11:21.271Z,101447.34
2023-05-05T20:13:50.047Z,101499.63
2023-05-05T20:16:17.887Z,101494.06
2023-05-05T20:18:44.972Z,101465.56
2023-05-05T20:21:12.206Z,101496.47
2023-05-05T20:23:39.595Z,101457.09
2023-05-05T20:26:06.711Z,101471.06
2023-05-05T20:28:33.799Z,101488.41
2023-05-05T20:31:01.217Z,101495.31
2023-05-05T20:33:29.209Z,101487.81
2023-05-05T20:35:56.407Z,101487.66
2023-05-05T20:38:23.897Z,101446.56
2023-05-05T20:40:52.317Z,101496.19
2023-05-05T20:43:19.770Z,101500.31
2023-05-05T20:45:46.819Z,101505.41
2023-05-05T20:48:13.911Z,101495.03
2023-05-05T20:50:41.857Z,101478.31
2023-05-05T20:53:10.001Z,101498.50
2023-05-05T20:55:37.308Z,101494.28
2023-05-05T20:58:05.174Z,101504.16
2023-05-05T21:00:32.370Z,101457.03
2023-05-05T21:02:59.767Z,101490.50
2023-05-05T21:05:26.892Z,101483.00
2023-05-05T21:07:54.708Z,101490.31
2023-05-05T21:10:21.998Z,101481.09
2023-05-05T21:12:49.175Z,101504.84
2023-05-05T21:15:16.719Z,101492.50
2023-05-05T21:17:44.008Z,101481.94
2023-05-05T21:20:11.876Z,101485.22
2023-05-05T21:22:39.360Z,101464.75
2023-05-05T21:25:24.838Z,101485.41
2023-05-05T21:27:51.847Z,101499.41
2023-05-05T21:30:18.929Z,101490.28
2023-05-05T21:32:46.202Z,101496.84
2023-05-05T21:35:13.426Z,101448.66
2023-05-05T21:37:40.948Z,101509.22
2023-05-05T21:40:13.744Z,101490.66
2023-05-05T21:42:42.003Z,101505.00
2023-05-05T21:45:10.708Z,101494.84
2023-05-05T21:47:37.838Z,101483.44
2023-05-05T21:50:05.648Z,101473.47
2023-05-05T21:52:32.782Z,101465.94
2023-05-05T21:54:59.830Z,101481.94
2023-05-05T21:57:26.989Z,101461.78
2023-05-05T21:59:54.013Z,101462.19
2023-05-05T22:02:21.139Z,101477.13
2023-05-05T22:04:51.303Z,101435.28
2023-05-05T22:07:18.316Z,101476.34
2023-05-05T22:09:46.048Z,101482.00
2023-05-05T22:12:13.322Z,101493.94
2023-05-05T22:14:40.465Z,101469.19
2023-05-05T22:17:07.633Z,101474.94
2023-05-05T22:19:34.631Z,101490.63
2023-05-05T22:22:02.797Z,101483.38
2023-05-05T22:24:30.108Z,101496.50
2023-05-05T22:26:57.597Z,101469.72
2023-05-05T22:29:25.390Z,101499.19
2023-05-05T22:31:52.798Z,101498.41
2023-05-05T22:34:22.048Z,101499.69
2023-05-05T22:36:49.877Z,101492.41
2023-05-05T22:39:18.770Z,101487.47
2023-05-05T22:41:46.436Z,101492.25
2023-05-05T22:44:13.611Z,101458.28
2023-05-05T22:46:40.975Z,101464.63
2023-05-05T22:49:08.810Z,101474.78
2023-05-05T22:51:35.948Z,101474.63
2023-05-05T22:54:03.134Z,101450.16
2023-05-05T22:56:30.473Z,101468.06
2023-05-05T22:58:57.571Z,101435.88
2023-05-05T23:01:24.748Z,101440.28
2023-05-05T23:03:51.949Z,101444.06
2023-05-05T23:06:19.022Z,101479.81
2023-05-05T23:08:46.408Z,101466.19
2023-05-05T23:11:13.565Z,101461.94
2023-05-05T23:13:40.882Z,101446.84
2023-05-05T23:16:08.495Z,101465.44
2023-05-05T23:18:36.485Z,101459.72
2023-05-05T23:21:03.609Z,101466.38
2023-05-05T23:23:31.240Z,101413.38
2023-05-05T23:25:58.395Z,101429.53
2023-05-05T23:28:25.483Z,101467.75
2023-05-05T23:30:52.711Z,101459.47
2023-05-05T23:33:19.926Z,101419.31
2023-05-05T23:35:47.097Z,101424.44
2023-05-05T23:38:14.153Z,101453.53
2023-05-05T23:40:41.343Z,101464.19
2023-05-05T23:43:08.344Z,101444.44
2023-05-05T23:45:35.516Z,101422.34
2023-05-05T23:48:02.589Z,101426.47
2023-05-05T23:50:30.442Z,101433.44
2023-05-05T23:52:57.581Z,101451.16
2023-05-05T23:55:24.790Z,101466.56
2023-05-05T23:57:53.198Z,101436.59
